Time;durP1;ratioP1;P1;durP2;ratioP2;P2;SDS_P1;SDS_P2;PMS_P1;PMS_P2;Temp;Humidity;BMP_temperature;BMP_pressure;BME280_temperature;BME280_humidity;BME280_pressure;Samples;Min_cycle;Max_cycle;Signal;HPM_P1;HPM_P2
2022/04/19 00:02:05;;;;;;;1.30;1.30;;;;;;;;;;5125507;27;20216;-56
2022/04/19 00:04:52;;;;;;;1.20;1.20;;;;;;;;;;5116567;27;20219;-56
2022/04/19 00:07:39;;;;;;;1.50;1.50;;;;;;;;;;5120010;27;20221;-56
2022/04/19 00:10:28;;;;;;;1.13;1.13;;;;;;;;;;5116591;27;20214;-56
2022/04/19 00:13:16;;;;;;;1.37;1.27;;;;;;;;;;5124410;27;20203;-56
2022/04/19 00:16:05;;;;;;;1.30;1.30;;;;;;;;;;5119683;27;20196;-58
2022/04/19 00:18:52;;;;;;;1.20;1.20;;;;;;;;;;5109215;27;20201;-58
2022/04/19 00:21:39;;;;;;;1.27;1.27;;;;;;;;;;5121529;27;20284;-57
2022/04/19 00:24:28;;;;;;;1.47;1.37;;;;;;;;;;5119298;27;20272;-57
2022/04/19 00:27:15;;;;;;;1.50;1.50;;;;;;;;;;5115132;27;20233;-57
2022/04/19 00:30:01;;;;;;;1.10;1.10;;;;;;;;;;5118444;27;20301;-57
2022/04/19 00:32:50;;;;;;;1.20;1.20;;;;;;;;;;5112376;27;20208;-57
2022/04/19 00:35:38;;;;;;;1.30;1.20;;;;;;;;;;5127784;27;20207;-57
2022/04/19 00:38:24;;;;;;;1.40;1.30;;;;;;;;;;5114069;27;20207;-57
2022/04/19 00:41:12;;;;;;;1.47;1.37;;;;;;;;;;5122282;27;20302;-56
2022/04/19 00:43:59;;;;;;;1.33;1.23;;;;;;;;;;5115630;27;20244;-56
2022/04/19 00:46:45;;;;;;;1.80;1.70;;;;;;;;;;5094141;27;20697;-57
2022/04/19 00:49:35;;;;;;;1.60;1.50;;;;;;;;;;5113604;27;20249;-56
2022/04/19 00:52:22;;;;;;;1.47;1.47;;;;;;;;;;5114301;27;20225;-56
2022/04/19 00:55:09;;;;;;;1.73;1.63;;;;;;;;;;5117919;27;20691;-57
2022/04/19 00:57:57;;;;;;;1.60;1.50;;;;;;;;;;5117689;27;20261;-56
2022/04/19 01:00:44;;;;;;;1.43;1.43;;;;;;;;;;5118155;27;20205;-57
2022/04/19 01:03:31;;;;;;;1.67;1.57;;;;;;;;;;5116853;27;20215;-57
2022/04/19 01:06:20;;;;;;;1.37;1.37;;;;;;;;;;5109361;27;20204;-57
2022/04/19 01:09:07;;;;;;;1.50;1.50;;;;;;;;;;5120223;27;20344;-56
2022/04/19 01:14:59;;;;;;;1.40;1.40;;;;;;;;;;5120171;27;20207;-56
2022/04/19 01:17:47;;;;;;;1.77;1.70;;;;;;;;;;5116979;27;20617;-58
2022/04/19 01:20:35;;;;;;;1.50;1.50;;;;;;;;;;5120220;27;20692;-58
2022/04/19 01:23:24;;;;;;;1.80;1.70;;;;;;;;;;5112300;27;20565;-56
2022/04/19 01:26:11;;;;;;;1.30;1.30;;;;;;;;;;5120668;27;20297;-57
2022/04/19 01:28:58;;;;;;;1.33;1.30;;;;;;;;;;5120413;27;20768;-56
2022/04/19 01:31:46;;;;;;;1.50;1.50;;;;;;;;;;5111750;27;20234;-57
2022/04/19 01:34:33;;;;;;;1.53;1.50;;;;;;;;;;5110570;27;20288;-55
2022/04/19 01:37:20;;;;;;;1.60;1.50;;;;;;;;;;5109858;27;20205;-55
2022/04/19 01:40:18;;;;;;;1.37;1.30;;;;;;;;;;5114988;27;20292;-55
2022/04/19 01:43:05;;;;;;;1.37;1.27;;;;;;;;;;5120196;27;20237;-55
2022/04/19 01:45:53;;;;;;;1.57;1.57;;;;;;;;;;5117836;27;20409;-55
2022/04/19 01:48:40;;;;;;;1.40;1.40;;;;;;;;;;5111901;27;20271;-56
2022/04/19 01:51:27;;;;;;;1.53;1.43;;;;;;;;;;5115385;27;20290;-55
2022/04/19 01:54:15;;;;;;;1.53;1.40;;;;;;;;;;5111240;27;20319;-55
2022/04/19 01:57:03;;;;;;;1.23;1.23;;;;;;;;;;5112745;27;20208;-56
2022/04/19 01:59:50;;;;;;;1.70;1.60;;;;;;;;;;5109237;27;20278;-55
2022/04/19 02:02:37;;;;;;;1.20;1.20;;;;;;;;;;5114117;27;20223;-56
2022/04/19 02:05:25;;;;;;;1.50;1.40;;;;;;;;;;5110996;27;20580;-55
2022/04/19 02:08:12;;;;;;;1.30;1.30;;;;;;;;;;5115110;27;20315;-55
2022/04/19 02:11:00;;;;;;;1.30;1.20;;;;;;;;;;5115673;27;20742;-55
2022/04/19 02:13:48;;;;;;;1.63;1.53;;;;;;;;;;5120781;27;20562;-55
2022/04/19 02:16:37;;;;;;;1.10;1.10;;;;;;;;;;5116312;27;20780;-56
2022/04/19 02:19:24;;;;;;;1.10;1.10;;;;;;;;;;5117339;27;20257;-55
2022/04/19 02:22:11;;;;;;;1.20;1.10;;;;;;;;;;5107659;27;20212;-56
2022/04/19 02:24:58;;;;;;;1.37;1.30;;;;;;;;;;5109712;27;20291;-55
2022/04/19 02:27:45;;;;;;;1.10;1.10;;;;;;;;;;5112451;27;20805;-55
2022/04/19 02:30:33;;;;;;;1.30;1.20;;;;;;;;;;5118311;27;20559;-56
2022/04/19 02:33:20;;;;;;;1.10;1.10;;;;;;;;;;5106351;27;20243;-55
2022/04/19 02:36:07;;;;;;;1.20;1.20;;;;;;;;;;5116975;27;20260;-55
2022/04/19 02:38:54;;;;;;;2.30;1.40;;;;;;;;;;5120203;27;20291;-55
2022/04/19 02:41:41;;;;;;;1.20;1.20;;;;;;;;;;5104487;28;20338;-55
2022/04/19 02:44:28;;;;;;;1.53;1.43;;;;;;;;;;5112869;28;20271;-67
2022/04/19 02:47:17;;;;;;;1.20;1.20;;;;;;;;;;5118346;28;20211;-56
2022/04/19 02:50:05;;;;;;;1.23;1.20;;;;;;;;;;5113651;28;20211;-55
2022/04/19 02:52:52;;;;;;;1.00;1.00;;;;;;;;;;5112993;28;20234;-55
2022/04/19 02:55:39;;;;;;;1.53;1.43;;;;;;;;;;5116916;28;20296;-55
2022/04/19 02:58:26;;;;;;;1.33;1.30;;;;;;;;;;5118486;28;20211;-55
2022/04/19 03:01:13;;;;;;;1.27;1.23;;;;;;;;;;5114432;28;20297;-55
2022/04/19 03:04:01;;;;;;;1.50;1.13;;;;;;;;;;5113248;28;20762;-55
2022/04/19 03:06:49;;;;;;;1.37;1.30;;;;;;;;;;5109476;28;20673;-55
2022/04/19 03:09:36;;;;;;;1.37;1.37;;;;;;;;;;5113959;28;20295;-55
2022/04/19 03:12:23;;;;;;;1.30;1.30;;;;;;;;;;5112318;28;20212;-55
2022/04/19 03:15:11;;;;;;;1.20;1.20;;;;;;;;;;5112033;28;20424;-55
2022/04/19 03:17:58;;;;;;;1.40;1.40;;;;;;;;;;5113320;28;20204;-55
2022/04/19 03:20:47;;;;;;;1.43;1.40;;;;;;;;;;5117868;28;20264;-56
2022/04/19 03:29:42;;;;;;;1.20;1.20;;;;;;;;;;5120969;27;20223;-55
2022/04/19 03:32:30;;;;;;;1.10;1.10;;;;;;;;;;5114845;27;20224;-55
2022/04/19 03:35:17;;;;;;;1.10;1.10;;;;;;;;;;5125500;27;20200;-55
2022/04/19 03:38:06;;;;;;;1.40;1.40;;;;;;;;;;5123515;27;20659;-55
2022/04/19 03:40:53;;;;;;;1.50;1.40;;;;;;;;;;5121783;27;20304;-55
2022/04/19 03:43:41;;;;;;;1.60;1.50;;;;;;;;;;5110556;27;20259;-54
2022/04/19 03:46:27;;;;;;;1.40;1.40;;;;;;;;;;5118251;27;20208;-56
2022/04/19 03:49:14;;;;;;;1.20;1.20;;;;;;;;;;5114892;27;20716;-55
2022/04/19 03:52:01;;;;;;;1.70;1.60;;;;;;;;;;5118506;27;20290;-55
2022/04/19 03:54:50;;;;;;;1.53;1.43;;;;;;;;;;5118360;27;20336;-55
2022/04/19 03:57:36;;;;;;;1.60;1.50;;;;;;;;;;5110206;27;20236;-56
2022/04/19 04:00:23;;;;;;;1.33;1.23;;;;;;;;;;5120184;27;20208;-54
2022/04/19 04:03:10;;;;;;;1.33;1.33;;;;;;;;;;5114800;27;20408;-78
2022/04/19 04:05:57;;;;;;;1.63;1.53;;;;;;;;;;5120020;27;20214;-55
2022/04/19 04:08:44;;;;;;;1.63;1.53;;;;;;;;;;5113567;27;20238;-55
2022/04/19 04:11:33;;;;;;;2.20;1.20;;;;;;;;;;5117261;27;20774;-56
2022/04/19 04:14:20;;;;;;;1.50;1.50;;;;;;;;;;5118717;27;20294;-55
2022/04/19 04:17:07;;;;;;;1.67;1.57;;;;;;;;;;5110946;27;20209;-55
2022/04/19 04:19:54;;;;;;;1.37;1.30;;;;;;;;;;5118633;27;20322;-55
2022/04/19 04:22:41;;;;;;;1.20;1.20;;;;;;;;;;5112913;27;20349;-56
2022/04/19 04:25:28;;;;;;;1.23;1.23;;;;;;;;;;5116924;27;20692;-55
2022/04/19 04:28:16;;;;;;;1.80;1.47;;;;;;;;;;5118337;27;20323;-55
2022/04/19 04:31:03;;;;;;;2.07;1.53;;;;;;;;;;5121705;27;20301;-55
2022/04/19 04:33:50;;;;;;;1.50;1.40;;;;;;;;;;5120149;27;20219;-55
2022/04/19 04:36:37;;;;;;;1.60;1.50;;;;;;;;;;5126367;27;20255;-56
2022/04/19 04:39:24;;;;;;;1.73;1.60;;;;;;;;;;5106275;27;20208;-56
2022/04/19 04:42:11;;;;;;;1.87;1.70;;;;;;;;;;5114377;27;20235;-57
2022/04/19 04:44:59;;;;;;;1.77;1.67;;;;;;;;;;5116960;27;20293;-55
2022/04/19 04:50:51;;;;;;;1.47;1.47;;;;;;;;;;5121419;27;20719;-55
2022/04/19 04:53:37;;;;;;;1.80;1.70;;;;;;;;;;5110281;27;20789;-56
2022/04/19 04:56:24;;;;;;;2.00;1.57;;;;;;;;;;5106252;27;20407;-55
2022/04/19 04:59:11;;;;;;;1.80;1.70;;;;;;;;;;5109771;27;20240;-56
2022/04/19 05:02:00;;;;;;;2.20;1.60;;;;;;;;;;5117793;27;20716;-55
2022/04/19 05:04:47;;;;;;;1.43;1.40;;;;;;;;;;5110989;27;20198;-55
2022/04/19 05:07:37;;;;;;;1.40;1.40;;;;;;;;;;5110568;27;20210;-56
2022/04/19 05:10:24;;;;;;;1.60;1.50;;;;;;;;;;5113263;27;20657;-56
2022/04/19 05:13:11;;;;;;;1.40;1.40;;;;;;;;;;5118351;27;20288;-58
2022/04/19 05:15:59;;;;;;;1.50;1.43;;;;;;;;;;5118385;27;20238;-55
2022/04/19 05:18:47;;;;;;;1.47;1.40;;;;;;;;;;5112376;27;20283;-56
2022/04/19 05:21:37;;;;;;;1.40;1.40;;;;;;;;;;5114656;27;20291;-56
2022/04/19 05:24:24;;;;;;;1.23;1.23;;;;;;;;;;5120604;27;20218;-56
2022/04/19 05:27:11;;;;;;;1.60;1.50;;;;;;;;;;5109967;27;20255;-59
2022/04/19 05:29:58;;;;;;;1.60;1.50;;;;;;;;;;5117590;27;20695;-55
2022/04/19 05:32:46;;;;;;;1.50;1.40;;;;;;;;;;5119949;27;20224;-56
2022/04/19 05:35:34;;;;;;;1.70;1.60;;;;;;;;;;5110840;27;20269;-56
2022/04/19 05:38:21;;;;;;;2.30;1.70;;;;;;;;;;5114967;27;20214;-59
2022/04/19 05:41:09;;;;;;;1.30;1.30;;;;;;;;;;5114101;27;20203;-56
2022/04/19 05:43:56;;;;;;;1.07;1.07;;;;;;;;;;5115417;27;20331;-56
2022/04/19 05:46:43;;;;;;;1.40;1.30;;;;;;;;;;5093813;28;20310;-56
2022/04/19 05:49:30;;;;;;;1.97;1.77;;;;;;;;;;5085431;28;20720;-56
2022/04/19 05:52:18;;;;;;;1.60;1.50;;;;;;;;;;5099135;28;20247;-55
2022/04/19 05:55:06;;;;;;;1.57;1.47;;;;;;;;;;5092278;28;20278;-55
2022/04/19 05:57:53;;;;;;;1.63;1.57;;;;;;;;;;5093194;28;20279;-55
2022/04/19 06:00:40;;;;;;;1.70;1.60;;;;;;;;;;5095892;28;20683;-60
2022/04/19 06:06:32;;;;;;;1.93;1.83;;;;;;;;;;5093985;28;20213;-54
2022/04/19 06:09:20;;;;;;;1.40;1.40;;;;;;;;;;5088295;28;20689;-55
2022/04/19 06:12:08;;;;;;;1.52;1.42;;;;;;;;;;5094434;28;20350;-55
2022/04/19 06:14:55;;;;;;;1.50;1.50;;;;;;;;;;5093587;28;20305;-56
2022/04/19 06:17:42;;;;;;;1.45;1.35;;;;;;;;;;5090091;28;20309;-55
2022/04/19 06:20:29;;;;;;;1.92;1.83;;;;;;;;;;5098214;28;20282;-56
2022/04/19 06:23:16;;;;;;;1.77;1.70;;;;;;;;;;5095371;28;20260;-54
2022/04/19 06:26:04;;;;;;;1.73;1.63;;;;;;;;;;5094657;28;20213;-55
2022/04/19 06:28:51;;;;;;;1.50;1.48;;;;;;;;;;5103534;28;20261;-56
2022/04/19 06:31:40;;;;;;;1.50;1.40;;;;;;;;;;5094271;28;20213;-56
2022/04/19 06:34:27;;;;;;;1.55;1.45;;;;;;;;;;5094189;28;20211;-55
2022/04/19 06:37:14;;;;;;;1.52;1.42;;;;;;;;;;5092046;28;20241;-55
2022/04/19 06:40:01;;;;;;;2.00;1.60;;;;;;;;;;5088176;28;20698;-55
2022/04/19 06:42:50;;;;;;;1.50;1.40;;;;;;;;;;5093366;28;20729;-55
2022/04/19 06:45:37;;;;;;;1.50;1.40;;;;;;;;;;5100375;28;20755;-55
2022/04/19 06:48:23;;;;;;;2.83;1.73;;;;;;;;;;5081672;28;20216;-54
2022/04/19 06:51:10;;;;;;;1.30;1.25;;;;;;;;;;5088563;28;20262;-55
2022/04/19 06:53:57;;;;;;;1.48;1.38;;;;;;;;;;5091371;28;20252;-54
2022/04/19 06:56:45;;;;;;;1.38;1.30;;;;;;;;;;5093960;28;20215;-54
2022/04/19 06:59:33;;;;;;;1.80;1.70;;;;;;;;;;5082785;28;20632;-55
2022/04/19 07:02:20;;;;;;;1.67;1.60;;;;;;;;;;5100192;28;20339;-53
2022/04/19 07:05:08;;;;;;;1.40;1.20;;;;;;;;;;5096311;28;20203;-54
2022/04/19 07:07:55;;;;;;;1.35;1.27;;;;;;;;;;5089325;28;20236;-54
2022/04/19 07:10:43;;;;;;;1.35;1.25;;;;;;;;;;5095249;28;20206;-55
2022/04/19 07:13:30;;;;;;;1.10;1.10;;;;;;;;;;5097469;28;20219;-55
2022/04/19 07:16:18;;;;;;;1.25;1.15;;;;;;;;;;5085726;28;20725;-55
2022/04/19 07:19:05;;;;;;;1.23;1.23;;;;;;;;;;5094833;28;20682;-55
2022/04/19 07:28:00;;;;;;;1.35;1.25;;;;;;;;;;5066603;28;20218;-55
2022/04/19 07:30:47;;;;;;;1.00;1.00;;;;;;;;;;5101343;28;20649;-55
2022/04/19 07:33:38;;;;;;;1.10;1.10;;;;;;;;;;5101216;28;20293;-55
2022/04/19 07:36:25;;;;;;;1.10;1.10;;;;;;;;;;5094010;28;20214;-55
2022/04/19 07:39:13;;;;;;;1.00;1.00;;;;;;;;;;5102634;28;20284;-55
2022/04/19 07:42:00;;;;;;;1.58;1.38;;;;;;;;;;5101298;28;20206;-55
2022/04/19 07:44:49;;;;;;;1.50;1.40;;;;;;;;;;5109997;27;20237;-56
2022/04/19 07:47:36;;;;;;;1.38;1.38;;;;;;;;;;5114309;27;20206;-56
2022/04/19 07:50:24;;;;;;;1.20;1.20;;;;;;;;;;5122672;27;20312;-56
2022/04/19 07:53:11;;;;;;;1.20;1.20;;;;;;;;;;5117831;27;20225;-56
2022/04/19 07:55:58;;;;;;;1.05;1.00;;;;;;;;;;5120997;27;20268;-56
2022/04/19 07:58:47;;;;;;;1.30;1.30;;;;;;;;;;5112867;27;20197;-56
2022/04/19 08:01:34;;;;;;;1.10;1.10;;;;;;;;;;5121015;27;20205;-56
2022/04/19 08:04:21;;;;;;;0.98;0.98;;;;;;;;;;5122086;27;20259;-56
2022/04/19 08:07:10;;;;;;;1.15;1.15;;;;;;;;;;5123309;27;20197;-57
2022/04/19 08:09:58;;;;;;;1.95;1.17;;;;;;;;;;5121073;27;20494;-55
2022/04/19 08:12:46;;;;;;;1.33;1.23;;;;;;;;;;5113069;27;20213;-56
2022/04/19 08:15:33;;;;;;;1.40;1.30;;;;;;;;;;5115843;27;20212;-55
2022/04/19 08:18:21;;;;;;;1.20;1.20;;;;;;;;;;5091199;27;20238;-54
2022/04/19 08:21:08;;;;;;;0.98;0.95;;;;;;;;;;5122393;27;20331;-54
2022/04/19 08:23:56;;;;;;;1.10;1.10;;;;;;;;;;5115686;27;20306;-54
2022/04/19 08:26:43;;;;;;;0.98;0.98;;;;;;;;;;5109277;27;20741;-54
2022/04/19 08:29:30;;;;;;;1.20;1.20;;;;;;;;;;5119478;27;20306;-54
2022/04/19 08:32:17;;;;;;;1.27;1.20;;;;;;;;;;5119155;27;20209;-54
2022/04/19 08:35:05;;;;;;;1.02;1.02;;;;;;;;;;5111591;27;20241;-55
2022/04/19 08:37:53;;;;;;;1.15;1.15;;;;;;;;;;5123926;27;20208;-56
2022/04/19 08:40:41;;;;;;;1.17;1.13;;;;;;;;;;5104224;27;20239;-54
2022/04/19 08:43:28;;;;;;;1.20;1.10;;;;;;;;;;5115854;27;20343;-55
2022/04/19 08:46:19;;;;;;;1.00;1.00;;;;;;;;;;5094372;28;20209;-55
2022/04/19 08:49:06;;;;;;;1.02;1.02;;;;;;;;;;5086818;28;20245;-55
2022/04/19 08:51:53;;;;;;;0.90;0.90;;;;;;;;;;5099846;28;20598;-55
2022/04/19 08:57:46;;;;;;;1.08;1.08;;;;;;;;;;5088087;28;20245;-56
2022/04/19 09:00:33;;;;;;;1.05;1.05;;;;;;;;;;5089682;28;20652;-57
2022/04/19 09:03:20;;;;;;;1.10;1.10;;;;;;;;;;5092736;28;20334;-55
2022/04/19 09:06:08;;;;;;;0.82;0.82;;;;;;;;;;5096138;28;20645;-57
2022/04/19 09:09:08;;;;;;;1.20;1.20;;;;;;;;;;5101244;28;20356;-56
2022/04/19 09:12:05;;;;;;;0.88;0.88;;;;;;;;;;5082181;28;20224;-55
2022/04/19 09:15:00;;;;;;;1.10;1.10;;;;;;;;;;5097363;28;20208;-56
2022/04/19 09:17:49;;;;;;;1.02;1.02;;;;;;;;;;5097013;28;20208;-57
2022/04/19 09:20:36;;;;;;;1.20;1.20;;;;;;;;;;5097078;28;20276;-56
2022/04/19 09:23:25;;;;;;;1.00;1.00;;;;;;;;;;5095999;28;20687;-56
2022/04/19 09:26:13;;;;;;;0.90;0.90;;;;;;;;;;5088179;28;20217;-55
2022/04/19 09:29:19;;;;;;;0.82;0.82;;;;;;;;;;5092432;28;20681;-55
2022/04/19 09:32:13;;;;;;;0.80;0.80;;;;;;;;;;5094644;28;20567;-55
2022/04/19 09:35:00;;;;;;;0.85;0.85;;;;;;;;;;5087639;28;20614;-55
2022/04/19 09:37:48;;;;;;;0.70;0.70;;;;;;;;;;5087173;28;20239;-56
2022/04/19 09:40:37;;;;;;;0.70;0.70;;;;;;;;;;5091909;28;20253;-55
2022/04/19 09:43:24;;;;;;;0.85;0.85;;;;;;;;;;5090404;28;20289;-55
2022/04/19 09:46:18;;;;;;;0.95;0.95;;;;;;;;;;5095483;28;20311;-55
2022/04/19 09:49:07;;;;;;;0.80;0.80;;;;;;;;;;5100572;28;20218;-55
2022/04/19 09:51:54;;;;;;;1.23;1.00;;;;;;;;;;5082579;28;20299;-56
2022/04/19 09:54:42;;;;;;;0.73;0.73;;;;;;;;;;5094987;28;20312;-55
2022/04/19 09:57:31;;;;;;;0.70;0.70;;;;;;;;;;5091770;28;20602;-56
2022/04/19 10:00:19;;;;;;;0.80;0.80;;;;;;;;;;5088125;28;20806;-55
2022/04/19 10:09:21;;;;;;;0.80;0.80;;;;;;;;;;5087441;28;20199;-56
2022/04/19 10:12:10;;;;;;;0.90;0.90;;;;;;;;;;5085745;28;20221;-56
2022/04/19 10:14:59;;;;;;;0.80;0.80;;;;;;;;;;5089085;28;20213;-56
2022/04/19 10:17:47;;;;;;;0.60;0.60;;;;;;;;;;5091928;28;20225;-55
2022/04/19 10:20:38;;;;;;;0.82;0.82;;;;;;;;;;5088157;28;20635;-55
2022/04/19 10:23:35;;;;;;;0.73;0.73;;;;;;;;;;5084567;28;20356;-55
2022/04/19 10:26:24;;;;;;;0.80;0.80;;;;;;;;;;5087668;28;20243;-55
2022/04/19 10:29:19;;;;;;;0.63;0.63;;;;;;;;;;5092224;28;20205;-56
2022/04/19 10:32:09;;;;;;;0.60;0.60;;;;;;;;;;5088340;28;20233;-56
2022/04/19 10:35:00;;;;;;;0.77;0.77;;;;;;;;;;5087579;28;20209;-55
2022/04/19 10:38:07;;;;;;;0.50;0.50;;;;;;;;;;5089220;28;20210;-56
2022/04/19 10:40:56;;;;;;;0.57;0.57;;;;;;;;;;5084420;28;20301;-55
2022/04/19 10:44:28;;;;;;;0.60;0.60;;;;;;;;;;5085500;28;20206;-55
2022/04/19 10:47:17;;;;;;;0.80;0.80;;;;;;;;;;5065652;28;20371;-55
2022/04/19 10:50:05;;;;;;;0.70;0.70;;;;;;;;;;5089818;28;20406;-56
2022/04/19 10:52:52;;;;;;;0.68;0.68;;;;;;;;;;5093811;28;20322;-56
2022/04/19 10:55:40;;;;;;;0.77;0.77;;;;;;;;;;5086023;28;20198;-55
2022/04/19 10:58:40;;;;;;;0.90;0.90;;;;;;;;;;5086685;28;20288;-56
2022/04/19 11:01:31;;;;;;;0.70;0.70;;;;;;;;;;5088898;28;20236;-57
2022/04/19 11:04:39;;;;;;;1.02;0.60;;;;;;;;;;5094969;28;20358;-57
2022/04/19 11:07:41;;;;;;;0.77;0.77;;;;;;;;;;5088226;28;20676;-55
2022/04/19 11:10:37;;;;;;;0.60;0.60;;;;;;;;;;5087957;28;20231;-55
2022/04/19 11:13:26;;;;;;;1.00;0.93;;;;;;;;;;5088901;28;20247;-55
2022/04/19 11:16:14;;;;;;;0.98;0.70;;;;;;;;;;5087947;28;20686;-54
2022/04/19 11:19:14;;;;;;;0.73;0.73;;;;;;;;;;5084218;28;20681;-56
2022/04/19 11:22:01;;;;;;;0.60;0.60;;;;;;;;;;5076018;28;20205;-56
2022/04/19 11:25:02;;;;;;;0.60;0.60;;;;;;;;;;5077944;28;20235;-56
2022/04/19 11:28:21;;;;;;;0.65;0.65;;;;;;;;;;5075314;28;20658;-55
2022/04/19 11:31:16;;;;;;;0.40;0.40;;;;;;;;;;5081881;28;20765;-56
2022/04/19 11:34:11;;;;;;;0.70;0.70;;;;;;;;;;5086949;28;20280;-56
2022/04/19 11:36:58;;;;;;;0.77;0.77;;;;;;;;;;5085887;28;20642;-56
2022/04/19 11:49:26;;;;;;;0.60;0.60;;;;;;;;;;5052775;28;20214;-56
2022/04/19 11:52:13;;;;;;;0.70;0.70;;;;;;;;;;5082872;28;20208;-56
2022/04/19 11:55:01;;;;;;;0.60;0.60;;;;;;;;;;5090121;28;20261;-55
2022/04/19 11:57:47;;;;;;;0.50;0.50;;;;;;;;;;5090534;28;20299;-56
2022/04/19 12:00:35;;;;;;;0.80;0.80;;;;;;;;;;5088585;28;20471;-56
2022/04/19 12:03:27;;;;;;;0.60;0.60;;;;;;;;;;5094543;28;20200;-56
2022/04/19 12:06:18;;;;;;;0.63;0.63;;;;;;;;;;5089120;28;20204;-56
2022/04/19 12:09:06;;;;;;;0.47;0.47;;;;;;;;;;5092049;28;20256;-55
2022/04/19 12:11:54;;;;;;;0.80;0.80;;;;;;;;;;5095666;28;20310;-55
2022/04/19 12:14:41;;;;;;;0.77;0.77;;;;;;;;;;5087486;28;20212;-55
2022/04/19 12:17:28;;;;;;;0.67;0.67;;;;;;;;;;5084639;28;20680;-55
2022/04/19 12:20:15;;;;;;;0.60;0.60;;;;;;;;;;5087201;28;20234;-57
2022/04/19 12:23:04;;;;;;;0.70;0.70;;;;;;;;;;5093287;28;20206;-55
2022/04/19 12:26:05;;;;;;;0.70;0.70;;;;;;;;;;5076120;28;20211;-56
2022/04/19 12:28:53;;;;;;;0.70;0.70;;;;;;;;;;5088653;28;20206;-55
2022/04/19 12:31:41;;;;;;;0.67;0.67;;;;;;;;;;5083673;28;20688;-55
2022/04/19 12:34:39;;;;;;;0.80;0.80;;;;;;;;;;5088966;28;20204;-56
2022/04/19 12:37:26;;;;;;;0.77;0.73;;;;;;;;;;5084221;28;20239;-55
2022/04/19 12:40:14;;;;;;;0.83;0.83;;;;;;;;;;5082394;28;20198;-56
2022/04/19 12:43:01;;;;;;;0.70;0.70;;;;;;;;;;5081319;28;20243;-56
2022/04/19 12:45:48;;;;;;;0.80;0.80;;;;;;;;;;5098760;27;20612;-56
2022/04/19 12:48:35;;;;;;;0.90;0.63;;;;;;;;;;5108645;27;20213;-57
2022/04/19 12:51:24;;;;;;;0.60;0.60;;;;;;;;;;5118195;27;20269;-56
2022/04/19 12:54:11;;;;;;;0.60;0.60;;;;;;;;;;5112957;27;20232;-55
2022/04/19 12:57:01;;;;;;;0.47;0.43;;;;;;;;;;5112245;27;20209;-56
2022/04/19 12:59:48;;;;;;;0.60;0.60;;;;;;;;;;5115580;27;20285;-56
2022/04/19 13:02:35;;;;;;;0.70;0.70;;;;;;;;;;5120088;27;20204;-55
2022/04/19 13:12:16;;;;;;;0.60;0.60;;;;;;;;;;5123006;27;20215;-55
2022/04/19 13:14:40;;;;;;;0.70;0.70;;;;;;;;;;5111258;27;20200;-55
2022/04/19 13:17:30;;;;;;;0.60;0.60;;;;;;;;;;5111630;27;20419;-56
2022/04/19 13:20:17;;;;;;;0.60;0.60;;;;;;;;;;5106338;27;20253;-55
2022/04/19 13:23:04;;;;;;;1.60;0.70;;;;;;;;;;5113204;27;20268;-55
2022/04/19 13:25:51;;;;;;;2.00;0.60;;;;;;;;;;5110543;27;20291;-55
2022/04/19 13:28:37;;;;;;;0.83;0.83;;;;;;;;;;5111544;27;20652;-55
2022/04/19 13:31:26;;;;;;;0.50;0.50;;;;;;;;;;5116514;27;20684;-56
2022/04/19 13:34:13;;;;;;;0.67;0.67;;;;;;;;;;5115007;27;20324;-56
2022/04/19 13:37:00;;;;;;;0.67;0.67;;;;;;;;;;5107835;27;20716;-55
2022/04/19 13:39:47;;;;;;;0.67;0.67;;;;;;;;;;5113553;27;20225;-55
2022/04/19 13:42:34;;;;;;;0.60;0.60;;;;;;;;;;5114807;27;20275;-57
2022/04/19 13:45:21;;;;;;;0.60;0.60;;;;;;;;;;5113236;27;20237;-55
2022/04/19 13:48:10;;;;;;;0.70;0.70;;;;;;;;;;5100137;27;20238;-55
2022/04/19 13:50:57;;;;;;;0.70;0.70;;;;;;;;;;5091286;27;20285;-56
2022/04/19 13:53:44;;;;;;;0.57;0.57;;;;;;;;;;5111315;27;20232;-56
2022/04/19 13:56:31;;;;;;;0.70;0.70;;;;;;;;;;5102742;28;20336;-56
2022/04/19 13:59:19;;;;;;;0.63;0.63;;;;;;;;;;5107716;27;20881;-55
2022/04/19 14:02:06;;;;;;;0.57;0.57;;;;;;;;;;5104827;27;20203;-55
2022/04/19 14:04:54;;;;;;;0.60;0.60;;;;;;;;;;5111166;27;20213;-55
2022/04/19 14:07:41;;;;;;;0.70;0.70;;;;;;;;;;5106621;27;20205;-55
2022/04/19 14:10:28;;;;;;;0.60;0.60;;;;;;;;;;5109611;27;20205;-55
2022/04/19 14:13:15;;;;;;;0.60;0.60;;;;;;;;;;5110206;27;20705;-56
2022/04/19 14:16:02;;;;;;;0.63;0.63;;;;;;;;;;5104040;27;20297;-55
2022/04/19 14:18:49;;;;;;;0.40;0.40;;;;;;;;;;5115957;27;20229;-58
2022/04/19 14:21:37;;;;;;;1.70;0.80;;;;;;;;;;5112586;27;20502;-56
2022/04/19 14:24:24;;;;;;;0.80;0.80;;;;;;;;;;5108025;27;20340;-56
2022/04/19 14:27:11;;;;;;;0.43;0.43;;;;;;;;;;5110652;27;20575;-56
2022/04/19 14:33:18;;;;;;;0.60;0.60;;;;;;;;;;5107926;27;20772;-56
2022/04/19 14:36:05;;;;;;;0.60;0.60;;;;;;;;;;5106335;27;20202;-56
2022/04/19 14:38:54;;;;;;;1.27;0.40;;;;;;;;;;5109108;27;20563;-56
2022/04/19 14:41:42;;;;;;;0.70;0.70;;;;;;;;;;5111486;28;20230;-56
2022/04/19 14:44:28;;;;;;;0.53;0.53;;;;;;;;;;5116905;27;20306;-55
2022/04/19 14:47:15;;;;;;;0.60;0.60;;;;;;;;;;5121251;27;20288;-56
2022/04/19 14:50:02;;;;;;;0.50;0.50;;;;;;;;;;5114980;28;20327;-56
2022/04/19 14:52:49;;;;;;;0.50;0.50;;;;;;;;;;5112675;28;20555;-55
2022/04/19 14:55:42;;;;;;;0.70;0.70;;;;;;;;;;5112538;28;20309;-56
2022/04/19 14:58:29;;;;;;;0.50;0.50;;;;;;;;;;5111371;28;20220;-56
2022/04/19 15:01:17;;;;;;;0.57;0.57;;;;;;;;;;5118118;28;20507;-56
2022/04/19 15:04:04;;;;;;;0.57;0.57;;;;;;;;;;5107039;28;20204;-55
2022/04/19 15:06:51;;;;;;;0.50;0.50;;;;;;;;;;5101476;28;20333;-56
2022/04/19 15:09:39;;;;;;;0.40;0.40;;;;;;;;;;5118576;28;20570;-56
2022/04/19 15:12:28;;;;;;;0.43;0.43;;;;;;;;;;5119349;28;20229;-59
2022/04/19 15:15:15;;;;;;;0.70;0.70;;;;;;;;;;5115192;28;20292;-55
2022/04/19 15:18:02;;;;;;;0.50;0.50;;;;;;;;;;5103226;28;20350;-55
2022/04/19 15:20:49;;;;;;;0.40;0.40;;;;;;;;;;5111684;27;20206;-56
2022/04/19 15:23:37;;;;;;;0.40;0.40;;;;;;;;;;5119164;27;20293;-56
2022/04/19 15:26:25;;;;;;;0.80;0.80;;;;;;;;;;5126122;27;20218;-56
2022/04/19 15:29:14;;;;;;;0.67;0.40;;;;;;;;;;5124785;27;20201;-55
2022/04/19 15:32:01;;;;;;;0.77;0.67;;;;;;;;;;5111588;27;20258;-56
2022/04/19 15:34:48;;;;;;;0.50;0.50;;;;;;;;;;5117735;27;20212;-56
2022/04/19 15:37:35;;;;;;;0.50;0.50;;;;;;;;;;5116288;27;20214;-56
2022/04/19 15:40:22;;;;;;;0.70;0.70;;;;;;;;;;5116883;27;20203;-56
2022/04/19 15:43:09;;;;;;;0.80;0.70;;;;;;;;;;5120511;27;20201;-56
2022/04/19 15:45:58;;;;;;;0.57;0.57;;;;;;;;;;5108275;27;20403;-60
2022/04/19 15:48:45;;;;;;;0.57;0.57;;;;;;;;;;5092344;28;20284;-66
2022/04/19 15:51:32;;;;;;;0.40;0.40;;;;;;;;;;5088788;28;20236;-55
2022/04/19 15:54:19;;;;;;;0.50;0.50;;;;;;;;;;5115915;27;20259;-56
2022/04/19 15:57:06;;;;;;;0.63;0.50;;;;;;;;;;5117007;27;20805;-55
2022/04/19 15:59:53;;;;;;;0.50;0.50;;;;;;;;;;5116145;27;20275;-56
2022/04/19 16:02:41;;;;;;;0.53;0.53;;;;;;;;;;5118759;27;20675;-56
2022/04/19 16:05:28;;;;;;;0.50;0.50;;;;;;;;;;5116612;27;20679;-56
2022/04/19 16:08:15;;;;;;;0.50;0.50;;;;;;;;;;5113373;27;20699;-56
2022/04/19 16:11:02;;;;;;;0.40;0.40;;;;;;;;;;5121744;27;20255;-55
2022/04/19 16:13:50;;;;;;;0.50;0.50;;;;;;;;;;5122181;27;20230;-55
2022/04/19 16:25:53;;;;;;;0.50;0.50;;;;;;;;;;5120956;27;20208;-56
2022/04/19 16:28:42;;;;;;;0.87;0.40;;;;;;;;;;5106248;27;20246;-55
2022/04/19 16:31:28;;;;;;;0.70;0.70;;;;;;;;;;5106747;27;20230;-55
2022/04/19 16:34:15;;;;;;;0.60;0.60;;;;;;;;;;5114199;27;20243;-56
2022/04/19 16:37:04;;;;;;;0.50;0.50;;;;;;;;;;5119108;27;20690;-55
2022/04/19 16:39:52;;;;;;;0.70;0.70;;;;;;;;;;5112857;27;20239;-56
2022/04/19 16:42:39;;;;;;;0.83;0.83;;;;;;;;;;5108871;27;20199;-55
2022/04/19 16:45:26;;;;;;;0.60;0.60;;;;;;;;;;5114139;27;20303;-55
2022/04/19 16:48:13;;;;;;;0.50;0.50;;;;;;;;;;5118412;27;20352;-55
2022/04/19 16:51:00;;;;;;;0.60;0.60;;;;;;;;;;5114317;27;20264;-55
2022/04/19 16:53:49;;;;;;;0.43;0.43;;;;;;;;;;5120655;27;20297;-56
2022/04/19 16:56:36;;;;;;;0.57;0.57;;;;;;;;;;5116321;27;20684;-56
2022/04/19 16:59:23;;;;;;;0.70;0.70;;;;;;;;;;5116800;27;20203;-56
2022/04/19 17:02:10;;;;;;;0.73;0.70;;;;;;;;;;5118918;27;20201;-56
2022/04/19 17:04:57;;;;;;;0.60;0.60;;;;;;;;;;5118654;27;20587;-56
2022/04/19 17:07:45;;;;;;;0.80;0.60;;;;;;;;;;5122421;27;20206;-56
2022/04/19 17:10:33;;;;;;;0.70;0.70;;;;;;;;;;5115448;27;21246;-56
2022/04/19 17:13:20;;;;;;;0.70;0.70;;;;;;;;;;5115485;27;20737;-56
2022/04/19 17:16:07;;;;;;;0.77;0.50;;;;;;;;;;5124114;27;20214;-57
2022/04/19 17:18:55;;;;;;;0.50;0.50;;;;;;;;;;5123719;27;20220;-56
2022/04/19 17:21:42;;;;;;;0.60;0.60;;;;;;;;;;5111399;27;20214;-56
2022/04/19 17:24:29;;;;;;;0.60;0.60;;;;;;;;;;5115100;27;20205;-56
2022/04/19 17:27:17;;;;;;;0.57;0.57;;;;;;;;;;5110833;27;20262;-56
2022/04/19 17:30:05;;;;;;;0.40;0.40;;;;;;;;;;5113594;27;20308;-56
2022/04/19 17:32:52;;;;;;;0.60;0.60;;;;;;;;;;5117749;27;20599;-56
2022/04/19 17:35:40;;;;;;;0.60;0.60;;;;;;;;;;5118659;27;20690;-56
2022/04/19 17:38:27;;;;;;;0.70;0.70;;;;;;;;;;5122768;27;20209;-56
2022/04/19 17:41:14;;;;;;;0.80;0.80;;;;;;;;;;5111681;27;20296;-56
2022/04/19 17:44:03;;;;;;;0.50;0.50;;;;;;;;;;5115621;27;20727;-56
2022/04/19 17:46:50;;;;;;;0.67;0.67;;;;;;;;;;5114050;27;20217;-56
2022/04/19 17:56:28;;;;;;;0.80;0.80;;;;;;;;;;5115908;27;20338;-57